Time;durP1;ratioP1;P1;durP2;ratioP2;P2;SDS_P1;SDS_P2;PMS_P1;PMS_P2;Temp;Humidity;BMP_temperature;BMP_pressure;BME280_temperature;BME280_humidity;BME280_pressure;Samples;Min_cycle;Max_cycle;Signal;HPM_P1;HPM_P2
2023/05/02 00:01:16;;;;;;;4.00;2.75;;;10.30;99.90;;;;;;5060409;28;20201;-88
2023/05/02 00:03:44;;;;;;;3.03;2.72;;;10.40;99.90;;;;;;5059696;28;20220;-91
2023/05/02 00:06:11;;;;;;;4.35;2.85;;;10.40;99.90;;;;;;5063982;28;20554;-91
2023/05/02 00:08:38;;;;;;;2.90;2.70;;;10.40;99.90;;;;;;5066528;28;20206;-91
2023/05/02 00:11:05;;;;;;;3.00;2.70;;;10.40;99.90;;;;;;5055987;28;20226;-92
2023/05/02 00:13:32;;;;;;;3.08;2.78;;;10.40;99.90;;;;;;5062925;28;20206;-91
2023/05/02 00:15:59;;;;;;;3.08;2.88;;;10.40;99.90;;;;;;5066708;28;20204;-91
2023/05/02 00:18:26;;;;;;;3.00;2.65;;;10.40;99.90;;;;;;5067675;28;20329;-92
2023/05/02 00:20:55;;;;;;;2.90;2.70;;;10.30;99.90;;;;;;5057360;28;20238;-87
2023/05/02 00:23:22;;;;;;;5.72;2.80;;;10.30;99.90;;;;;;5041252;28;20261;-91
2023/05/02 00:25:49;;;;;;;2.95;2.75;;;10.30;99.90;;;;;;5049214;28;20213;-91
2023/05/02 00:28:17;;;;;;;3.13;2.83;;;10.30;99.90;;;;;;5042159;28;20205;-92
2023/05/02 00:30:44;;;;;;;5.65;3.05;;;10.40;99.90;;;;;;5063436;28;20213;-91
2023/05/02 00:33:13;;;;;;;4.13;2.72;;;10.30;99.90;;;;;;5062077;28;20203;-93
2023/05/02 00:35:40;;;;;;;3.40;3.10;;;10.30;99.90;;;;;;5063569;28;20200;-90
2023/05/02 00:38:08;;;;;;;3.17;2.65;;;10.20;99.90;;;;;;5066127;28;20185;-91
2023/05/02 00:40:45;;;;;;;3.10;2.80;;;10.20;99.90;;;;;;5060376;28;20224;-89
2023/05/02 00:43:12;;;;;;;2.88;2.67;;;10.20;99.90;;;;;;5060579;28;20703;-91
2023/05/02 00:45:40;;;;;;;3.65;2.90;;;10.20;99.90;;;;;;5064352;28;20209;-92
2023/05/02 00:48:08;;;;;;;2.95;2.70;;;10.10;99.90;;;;;;5059089;28;20206;-91
2023/05/02 00:50:37;;;;;;;3.53;3.22;;;10.10;99.90;;;;;;5061378;28;20201;-91
2023/05/02 00:53:04;;;;;;;4.55;3.22;;;10.00;99.90;;;;;;5052410;28;20297;-92
2023/05/02 00:55:33;;;;;;;3.55;3.25;;;10.00;99.90;;;;;;5061159;28;20543;-92
2023/05/02 00:58:00;;;;;;;4.05;3.33;;;10.00;99.90;;;;;;5065928;28;20206;-91
2023/05/02 01:00:36;;;;;;;4.13;3.60;;;10.00;99.90;;;;;;5059216;28;20206;-90
2023/05/02 01:03:12;;;;;;;3.40;3.10;;;10.00;99.90;;;;;;5063977;28;20206;-88
2023/05/02 01:05:55;;;;;;;5.47;3.25;;;9.90;99.90;;;;;;5063246;28;20221;-87
2023/05/02 01:08:34;;;;;;;3.92;3.20;;;9.90;99.90;;;;;;5064573;28;20212;-92
2023/05/02 01:11:13;;;;;;;3.30;3.00;;;9.90;99.90;;;;;;5060819;28;20221;-91
2023/05/02 01:13:43;;;;;;;3.70;3.30;;;9.90;99.90;;;;;;5063757;28;20198;-90
2023/05/02 01:16:14;;;;;;;3.30;3.00;;;9.80;99.90;;;;;;5057229;28;20265;-89
2023/05/02 01:18:42;;;;;;;3.97;3.30;;;9.70;99.90;;;;;;5068656;28;20248;-92
2023/05/02 01:21:11;;;;;;;3.30;2.90;;;9.70;99.90;;;;;;5065476;28;20202;-91
2023/05/02 01:23:52;;;;;;;3.50;3.20;;;9.70;99.90;;;;;;5065250;28;20213;-90
2023/05/02 01:26:29;;;;;;;3.50;3.15;;;9.70;99.90;;;;;;5058874;28;20194;-89
2023/05/02 01:28:59;;;;;;;4.43;3.20;;;9.70;99.90;;;;;;5062822;28;20221;-89
2023/05/02 01:31:28;;;;;;;4.65;3.30;;;9.70;99.90;;;;;;5062989;28;20243;-90
2023/05/02 01:33:57;;;;;;;3.70;3.30;;;9.70;99.90;;;;;;5054942;28;20198;-90
2023/05/02 01:36:29;;;;;;;3.92;2.90;;;9.70;99.90;;;;;;5067431;28;20199;-89
2023/05/02 01:38:57;;;;;;;3.50;3.20;;;9.70;99.90;;;;;;5076038;28;20253;-89
2023/05/02 01:41:26;;;;;;;3.58;3.28;;;9.60;99.90;;;;;;5056345;28;20190;-89
2023/05/02 01:43:56;;;;;;;3.28;2.97;;;9.60;99.90;;;;;;5065452;28;20190;-89
2023/05/02 01:46:26;;;;;;;3.88;3.00;;;9.60;99.90;;;;;;5077068;28;20188;-91
2023/05/02 01:48:54;;;;;;;3.05;2.85;;;9.60;99.90;;;;;;5060843;28;20201;-89
2023/05/02 01:51:23;;;;;;;3.40;2.92;;;9.60;99.90;;;;;;5065860;28;20209;-92
2023/05/02 01:53:51;;;;;;;3.25;2.95;;;9.70;99.90;;;;;;5070166;28;20186;-90
2023/05/02 01:56:20;;;;;;;3.10;2.80;;;9.70;99.90;;;;;;5067584;28;20227;-91
2023/05/02 01:58:48;;;;;;;3.63;2.60;;;9.60;99.90;;;;;;5067082;28;20229;-91
2023/05/02 02:01:16;;;;;;;3.50;2.90;;;9.60;99.90;;;;;;5065331;28;20199;-92
2023/05/02 02:03:46;;;;;;;3.92;3.50;;;9.60;99.90;;;;;;5062484;28;20202;-90
2023/05/02 02:06:14;;;;;;;3.50;3.20;;;9.60;99.90;;;;;;5065733;28;20515;-91
2023/05/02 02:08:42;;;;;;;3.22;2.92;;;9.50;99.90;;;;;;5071278;28;20202;-91
2023/05/02 02:11:11;;;;;;;2.95;2.75;;;9.50;99.90;;;;;;5064073;28;20225;-92
2023/05/02 02:13:44;;;;;;;2.90;2.70;;;9.60;99.90;;;;;;5060788;28;20226;-92
2023/05/02 02:16:14;;;;;;;3.30;3.00;;;9.60;99.90;;;;;;5066563;28;20193;-90
2023/05/02 02:18:44;;;;;;;3.47;2.90;;;9.60;99.90;;;;;;5067981;28;20585;-91
2023/05/02 02:21:13;;;;;;;3.60;2.72;;;9.60;99.90;;;;;;5064101;28;20204;-91
2023/05/02 02:23:43;;;;;;;3.40;3.05;;;9.60;99.90;;;;;;5066758;28;20225;-91
2023/05/02 02:26:10;;;;;;;3.67;2.97;;;9.50;99.90;;;;;;5066457;28;20225;-91
2023/05/02 02:28:37;;;;;;;3.17;2.90;;;9.50;99.90;;;;;;5068146;28;20205;-92
2023/05/02 02:31:04;;;;;;;3.33;3.03;;;9.50;99.90;;;;;;5047009;28;20206;-91
2023/05/02 02:33:31;;;;;;;2.97;2.60;;;9.50;99.90;;;;;;5061901;28;20273;-86
2023/05/02 02:36:08;;;;;;;3.78;2.92;;;9.50;99.90;;;;;;5060029;28;20206;-89
2023/05/02 02:38:42;;;;;;;3.35;3.05;;;9.50;99.90;;;;;;5067278;28;20193;-92
2023/05/02 02:41:15;;;;;;;2.97;2.78;;;9.40;99.90;;;;;;5072336;28;20198;-90
2023/05/02 02:43:53;;;;;;;3.55;3.13;;;9.40;99.90;;;;;;5062970;28;20197;-91
2023/05/02 02:46:30;;;;;;;3.30;3.00;;;9.50;99.90;;;;;;5053166;28;20206;-90
2023/05/02 02:49:06;;;;;;;3.15;2.85;;;9.40;99.90;;;;;;5054204;28;20218;-90
2023/05/02 02:51:46;;;;;;;3.88;3.42;;;9.50;99.90;;;;;;5060853;28;20223;-91
2023/05/02 02:54:20;;;;;;;3.42;2.70;;;9.60;99.90;;;;;;5054626;28;20202;-92
2023/05/02 02:56:50;;;;;;;4.15;2.60;;;9.60;99.90;;;;;;5060587;28;20202;-91
2023/05/02 02:59:26;;;;;;;3.33;3.03;;;9.60;99.90;;;;;;5066298;28;20209;-91
2023/05/02 03:02:01;;;;;;;2.90;2.70;;;9.60;99.90;;;;;;5060860;28;20227;-88
2023/05/02 03:04:30;;;;;;;3.58;2.80;;;9.50;99.90;;;;;;5058331;28;20197;-91
2023/05/02 03:07:00;;;;;;;2.75;2.55;;;9.60;99.90;;;;;;5060350;28;20205;-91
2023/05/02 03:09:29;;;;;;;2.97;2.67;;;9.60;99.90;;;;;;5060182;28;20226;-91
2023/05/02 03:11:56;;;;;;;3.00;2.70;;;9.70;99.90;;;;;;5054734;28;20226;-91
2023/05/02 03:14:23;;;;;;;3.08;2.75;;;9.70;99.90;;;;;;5064890;28;20202;-91
2023/05/02 03:16:50;;;;;;;3.20;2.90;;;9.80;99.90;;;;;;5047700;28;20298;-91
2023/05/02 03:19:17;;;;;;;3.63;2.88;;;9.70;99.90;;;;;;5048840;28;20222;-90
2023/05/02 03:21:44;;;;;;;6.07;3.20;;;9.60;99.90;;;;;;5060229;28;20210;-91
2023/05/02 03:24:14;;;;;;;2.90;2.65;;;9.70;99.90;;;;;;5051968;28;20561;-92
2023/05/02 03:26:41;;;;;;;3.58;2.90;;;9.70;99.90;;;;;;5061833;28;20198;-89
2023/05/02 03:29:08;;;;;;;3.17;2.58;;;9.60;99.90;;;;;;5060787;28;20284;-91
2023/05/02 03:31:34;;;;;;;2.90;2.70;;;9.60;99.90;;;;;;5044812;28;20225;-91
2023/05/02 03:34:01;;;;;;;3.05;2.38;;;9.60;99.90;;;;;;5065736;28;20208;-91
2023/05/02 03:36:28;;;;;;;2.70;2.50;;;9.50;99.90;;;;;;5065145;28;20206;-92
2023/05/02 03:38:55;;;;;;;3.47;2.75;;;9.50;99.90;;;;;;5071511;28;20559;-91
2023/05/02 03:41:24;;;;;;;4.10;2.20;;;9.50;99.90;;;;;;5062501;28;20198;-91
2023/05/02 03:43:51;;;;;;;3.03;2.72;;;9.50;99.90;;;;;;5061337;28;20224;-91
2023/05/02 03:46:17;;;;;;;3.70;2.65;;;9.40;99.90;;;;;;5057707;28;20199;-90
2023/05/02 03:48:45;;;;;;;2.83;2.55;;;9.40;99.90;;;;;;5065620;28;20237;-91
2023/05/02 03:51:12;;;;;;;4.00;2.70;;;9.40;99.90;;;;;;5062903;28;20202;-90
2023/05/02 03:53:39;;;;;;;2.60;2.40;;;9.40;99.90;;;;;;5044726;28;20592;-90
2023/05/02 03:56:07;;;;;;;4.65;2.35;;;9.30;99.90;;;;;;5061702;28;20205;-91
2023/05/02 03:58:36;;;;;;;2.83;2.60;;;9.30;99.90;;;;;;5063247;28;20244;-91
2023/05/02 04:01:03;;;;;;;3.30;2.90;;;9.20;99.90;;;;;;5061438;28;20209;-91
2023/05/02 04:03:31;;;;;;;2.88;2.63;;;9.20;99.90;;;;;;5062268;28;20266;-88
2023/05/02 04:05:57;;;;;;;2.90;2.70;;;9.20;99.90;;;;;;5049662;28;20209;-91
2023/05/02 04:08:25;;;;;;;3.10;2.80;;;9.10;99.90;;;;;;5064580;28;20204;-91
2023/05/02 04:10:52;;;;;;;6.22;2.90;;;9.10;99.90;;;;;;5060903;28;20198;-91
2023/05/02 04:13:19;;;;;;;4.50;2.70;;;9.10;99.90;;;;;;5044508;28;20217;-91
2023/05/02 04:15:47;;;;;;;4.25;2.80;;;9.10;99.90;;;;;;5038847;28;20221;-90
2023/05/02 04:18:14;;;;;;;3.10;2.90;;;9.10;99.90;;;;;;5041160;28;20286;-90
2023/05/02 04:20:43;;;;;;;3.47;3.17;;;9.10;99.90;;;;;;5064856;28;20194;-92
2023/05/02 04:23:10;;;;;;;3.15;2.72;;;9.10;99.90;;;;;;5062608;28;20283;-91
2023/05/02 04:25:37;;;;;;;3.42;3.10;;;9.10;99.90;;;;;;5057700;28;20197;-87
2023/05/02 04:28:04;;;;;;;3.28;2.92;;;9.10;99.90;;;;;;5069286;28;20229;-90
2023/05/02 04:30:31;;;;;;;6.00;3.30;;;9.20;99.90;;;;;;5069220;28;20201;-90
2023/05/02 04:33:00;;;;;;;6.68;2.67;;;9.20;99.90;;;;;;5059658;28;20214;-90
2023/05/02 04:35:26;;;;;;;3.42;3.00;;;9.30;99.90;;;;;;5064472;28;20205;-89
2023/05/02 04:37:53;;;;;;;4.00;3.20;;;9.40;99.90;;;;;;5067354;28;20205;-92
2023/05/02 04:40:20;;;;;;;4.45;3.53;;;9.40;99.90;;;;;;5062309;28;20210;-89
2023/05/02 04:42:47;;;;;;;5.43;3.00;;;9.40;99.90;;;;;;5047943;28;20186;-90
2023/05/02 04:45:14;;;;;;;4.07;3.20;;;9.50;99.90;;;;;;5049875;28;21767;-93
2023/05/02 04:47:41;;;;;;;4.70;3.30;;;9.50;99.90;;;;;;5056494;28;20194;-93
2023/05/02 04:50:10;;;;;;;3.60;3.25;;;9.50;99.90;;;;;;5067402;28;20186;-92
2023/05/02 04:52:37;;;;;;;3.33;2.95;;;9.60;99.90;;;;;;5057250;28;20210;-92
2023/05/02 04:55:05;;;;;;;3.33;3.03;;;9.60;99.90;;;;;;5067126;28;20198;-93
2023/05/02 04:57:32;;;;;;;3.53;3.15;;;9.70;99.90;;;;;;5060433;28;20233;-91
2023/05/02 04:59:59;;;;;;;3.00;2.80;;;9.70;99.90;;;;;;5054904;28;20186;-89
2023/05/02 05:02:26;;;;;;;3.80;2.92;;;9.80;99.90;;;;;;5052126;28;20197;-91
2023/05/02 05:07:30;;;;;;;3.42;3.13;;;9.80;99.90;;;;;;5194746;22;20218;-95
2023/05/02 05:09:57;;;;;;;5.18;3.30;;;9.90;99.90;;;;;;5051382;28;20193;-92
2023/05/02 05:12:24;;;;;;;3.38;3.08;;;10.00;99.90;;;;;;5052257;28;20213;-92
2023/05/02 05:14:51;;;;;;;3.45;3.15;;;10.00;99.90;;;;;;5058926;28;20201;-92
2023/05/02 05:17:18;;;;;;;3.25;2.95;;;10.10;99.90;;;;;;5059122;28;20283;-92
2023/05/02 05:19:46;;;;;;;8.35;3.30;;;10.20;99.90;;;;;;5057330;28;20224;-91
2023/05/02 05:24:54;;;;;;;4.72;3.65;;;10.30;99.90;;;;;;5572907;22;20215;-91
2023/05/02 05:27:21;;;;;;;3.33;3.03;;;10.30;99.90;;;;;;5031177;28;20186;-91
2023/05/02 05:29:48;;;;;;;5.30;3.53;;;10.30;99.90;;;;;;5031271;28;20206;-93
2023/05/02 05:32:15;;;;;;;3.13;2.83;;;10.40;99.90;;;;;;5053167;28;20289;-92
2023/05/02 05:34:42;;;;;;;3.47;3.17;;;10.50;99.90;;;;;;5043816;28;20663;-92
2023/05/02 05:37:09;;;;;;;3.95;2.90;;;10.50;99.90;;;;;;5047521;28;20198;-91
2023/05/02 05:39:35;;;;;;;5.88;3.20;;;10.60;99.90;;;;;;5039915;28;20281;-92
2023/05/02 05:42:04;;;;;;;6.63;3.75;;;10.70;99.90;;;;;;5040442;28;20198;-92
2023/05/02 05:44:33;;;;;;;3.42;3.08;;;10.70;99.90;;;;;;5036165;28;20234;-93
2023/05/02 05:47:00;;;;;;;3.30;2.83;;;10.80;99.90;;;;;;5043174;28;20195;-92
2023/05/02 05:49:27;;;;;;;5.70;2.95;;;10.70;99.90;;;;;;5027066;28;20202;-92
2023/05/02 05:51:54;;;;;;;4.45;3.15;;;10.60;99.90;;;;;;5023051;28;20564;-91
2023/05/02 05:54:21;;;;;;;4.30;2.72;;;10.60;99.90;;;;;;5040546;28;20210;-92
2023/05/02 05:56:48;;;;;;;3.83;3.03;;;10.70;99.90;;;;;;5046368;28;20195;-91
2023/05/02 05:59:16;;;;;;;4.68;3.42;;;10.60;99.90;;;;;;5039905;28;20205;-92
2023/05/02 06:01:43;;;;;;;5.35;3.38;;;10.60;99.90;;;;;;5035125;28;20199;-92
2023/05/02 06:04:10;;;;;;;3.35;3.05;;;10.70;99.90;;;;;;5023463;28;20203;-92
2023/05/02 06:06:37;;;;;;;3.80;3.35;;;10.80;99.90;;;;;;5032240;28;20225;-92
2023/05/02 06:09:04;;;;;;;5.45;3.60;;;10.80;99.90;;;;;;5040251;28;20201;-92
2023/05/02 06:11:31;;;;;;;3.38;3.08;;;10.90;99.90;;;;;;5040859;28;20242;-91
2023/05/02 06:13:58;;;;;;;5.68;3.35;;;11.00;99.90;;;;;;5030862;28;20222;-90
2023/05/02 06:16:26;;;;;;;3.30;3.00;;;11.10;99.90;;;;;;5040508;28;20202;-93
2023/05/02 06:18:53;;;;;;;3.35;3.05;;;11.30;99.90;;;;;;5043431;28;20218;-91
2023/05/02 06:21:20;;;;;;;4.90;3.08;;;11.50;99.90;;;;;;5017386;28;20194;-93
2023/05/02 06:23:47;;;;;;;3.72;3.17;;;11.70;99.80;;;;;;5056404;28;20203;-92
2023/05/02 06:26:15;;;;;;;4.85;3.38;;;11.90;99.00;;;;;;5042148;28;20297;-91
2023/05/02 06:28:43;;;;;;;4.00;3.40;;;11.80;99.50;;;;;;5019884;28;20297;-91
2023/05/02 06:31:10;;;;;;;4.03;3.63;;;11.80;99.90;;;;;;5017219;28;20207;-90
2023/05/02 06:33:38;;;;;;;3.28;3.00;;;11.80;99.40;;;;;;5014925;28;20222;-91
2023/05/02 06:36:06;;;;;;;3.90;3.60;;;11.90;98.80;;;;;;5032653;28;20202;-90
2023/05/02 06:38:33;;;;;;;3.85;3.42;;;12.00;99.10;;;;;;5039125;28;20206;-90
2023/05/02 06:41:00;;;;;;;4.22;3.70;;;12.00;99.10;;;;;;5019147;28;20195;-90
2023/05/02 06:43:27;;;;;;;3.92;3.53;;;12.10;99.10;;;;;;5036090;28;20199;-89
2023/05/02 06:45:55;;;;;;;4.63;3.60;;;12.20;98.40;;;;;;5012788;28;20281;-90
2023/05/02 06:48:22;;;;;;;4.05;3.60;;;12.10;97.90;;;;;;5037111;28;20198;-91
2023/05/02 06:50:53;;;;;;;5.43;3.50;;;12.30;97.90;;;;;;5019047;28;20217;-90
2023/05/02 06:53:20;;;;;;;4.35;3.50;;;12.30;97.60;;;;;;5018797;28;20215;-90
2023/05/02 06:55:49;;;;;;;4.28;3.67;;;12.30;97.30;;;;;;5024807;28;20190;-90
2023/05/02 06:58:17;;;;;;;4.13;3.72;;;12.20;98.00;;;;;;5006682;28;20206;-92
2023/05/02 07:00:44;;;;;;;6.20;3.65;;;12.30;98.30;;;;;;5018027;28;20290;-93
2023/05/02 07:09:18;;;;;;;4.22;3.65;;;12.60;96.90;;;;;;5020620;28;20583;-88
2023/05/02 07:11:49;;;;;;;6.63;3.20;;;12.70;97.70;;;;;;4992112;28;20246;-93
2023/05/02 07:14:16;;;;;;;4.20;3.80;;;12.80;97.20;;;;;;5040778;28;20214;-93
2023/05/02 07:16:43;;;;;;;4.93;3.67;;;12.80;96.40;;;;;;5021893;28;20206;-94
2023/05/02 07:19:10;;;;;;;4.05;3.65;;;12.90;97.30;;;;;;5043437;28;20226;-93
2023/05/02 07:21:39;;;;;;;5.35;4.18;;;13.00;97.20;;;;;;5043000;28;20195;-94
2023/05/02 07:24:06;;;;;;;4.90;3.97;;;13.00;97.30;;;;;;5049421;28;20241;-93
2023/05/02 07:26:36;;;;;;;4.25;3.85;;;13.00;97.10;;;;;;5021814;28;20644;-93
2023/05/02 07:29:05;;;;;;;6.10;3.88;;;13.20;96.70;;;;;;5036597;28;20203;-94
2023/05/02 07:34:13;;;;;;;6.05;4.22;;;13.40;95.80;;;;;;5030669;28;20218;-93
2023/05/02 07:44:45;;;;;;;5.40;4.20;;;13.10;96.40;;;;;;5013730;28;20546;-94
2023/05/02 07:47:13;;;;;;;4.60;3.90;;;13.30;95.10;;;;;;5015375;28;20194;-95
2023/05/02 07:49:40;;;;;;;6.70;4.35;;;13.20;95.90;;;;;;5017848;28;20225;-94
2023/05/02 07:52:09;;;;;;;6.32;4.63;;;13.20;96.50;;;;;;5013332;28;20206;-94
2023/05/02 07:59:58;;;;;;;5.38;4.88;;;13.30;96.00;;;;;;5030617;28;20809;-93
2023/05/02 08:02:26;;;;;;;6.22;5.10;;;13.30;96.10;;;;;;5037321;28;20604;-93
2023/05/02 08:07:55;;;;;;;5.72;5.13;;;13.20;96.50;;;;;;5026191;28;20564;-90
2023/05/02 08:10:23;;;;;;;6.47;4.90;;;13.50;96.00;;;;;;5032348;28;20210;-92
2023/05/02 08:12:50;;;;;;;5.72;5.13;;;13.50;96.60;;;;;;5047679;28;20202;-93
2023/05/02 08:15:17;;;;;;;7.00;5.00;;;13.50;96.30;;;;;;5022826;28;20210;-93
2023/05/02 08:17:44;;;;;;;7.60;5.18;;;13.60;96.60;;;;;;5017480;28;20723;-92
2023/05/02 08:20:19;;;;;;;5.30;4.80;;;13.80;95.60;;;;;;5036781;28;20213;-93
2023/05/02 08:22:46;;;;;;;6.53;5.10;;;13.80;95.10;;;;;;5033214;28;20189;-93
2023/05/02 08:28:20;;;;;;;5.53;4.47;;;14.20;94.90;;;;;;5026154;28;20209;-93
2023/05/02 08:30:47;;;;;;;6.07;5.47;;;14.30;93.70;;;;;;5021818;28;20202;-93
2023/05/02 08:35:55;;;;;;;6.00;4.93;;;14.60;91.40;;;;;;5035427;28;20248;-93
2023/05/02 08:38:22;;;;;;;6.95;5.20;;;14.70;91.90;;;;;;5036570;28;20233;-92
2023/05/02 08:40:51;;;;;;;6.45;5.78;;;14.90;90.20;;;;;;5029017;28;20906;-92
2023/05/02 08:43:18;;;;;;;8.55;5.57;;;14.80;91.40;;;;;;5028286;28;20203;-91
2023/05/02 08:45:47;;;;;;;8.68;4.95;;;14.80;91.40;;;;;;5018555;28;20228;-92
2023/05/02 08:48:17;;;;;;;6.50;5.30;;;15.20;90.40;;;;;;5019508;28;20261;-94
2023/05/02 08:50:47;;;;;;;6.07;5.47;;;15.10;89.90;;;;;;5032703;28;20205;-94
2023/05/02 08:56:16;;;;;;;7.45;5.10;;;15.40;85.60;;;;;;5025462;28;20248;-93
2023/05/02 08:58:43;;;;;;;5.75;5.22;;;15.70;90.00;;;;;;5017569;28;20206;-94
2023/05/02 09:03:57;;;;;;;6.05;5.45;;;15.40;85.30;;;;;;5012009;28;20198;-94
2023/05/02 09:06:24;;;;;;;6.05;5.05;;;15.40;87.80;;;;;;5030705;28;20198;-93
2023/05/02 09:19:40;;;;;;;6.15;5.47;;;16.00;81.80;;;;;;5040507;28;20203;-94
2023/05/02 09:22:07;;;;;;;5.53;5.03;;;15.90;79.70;;;;;;5036368;28;20570;-93
2023/05/02 09:24:34;;;;;;;6.95;5.00;;;15.70;84.50;;;;;;5019568;28;20206;-93
2023/05/02 09:30:29;;;;;;;5.68;5.03;;;15.40;80.20;;;;;;5039405;28;20205;-94
2023/05/02 09:32:56;;;;;;;7.30;5.80;;;15.60;81.30;;;;;;5022996;28;20201;-94
2023/05/02 09:35:26;;;;;;;7.22;5.45;;;16.00;78.00;;;;;;5007830;28;20261;-93
2023/05/02 09:40:35;;;;;;;6.88;5.05;;;15.90;77.90;;;;;;5037332;28;20245;-92
2023/05/02 09:46:06;;;;;;;6.70;5.32;;;16.10;78.10;;;;;;5036477;28;20237;-93
2023/05/02 09:48:49;;;;;;;5.93;5.43;;;16.20;78.10;;;;;;5025189;28;20679;-93
2023/05/02 09:51:17;;;;;;;7.10;5.88;;;16.10;78.10;;;;;;5035593;28;20202;-92
2023/05/02 09:53:45;;;;;;;6.28;5.68;;;15.90;80.70;;;;;;5040180;28;20226;-92
2023/05/02 09:56:12;;;;;;;6.50;5.88;;;15.80;77.80;;;;;;5032605;28;20203;-92
2023/05/02 09:58:40;;;;;;;5.82;5.32;;;15.70;77.80;;;;;;5025005;28;20210;-91
2023/05/02 10:01:08;;;;;;;5.22;4.72;;;15.90;77.90;;;;;;5013530;28;20618;-92
2023/05/02 10:03:45;;;;;;;5.60;5.00;;;16.10;73.90;;;;;;5006381;28;20198;-92
2023/05/02 10:06:13;;;;;;;9.13;6.15;;;16.20;70.90;;;;;;5019235;28;20230;-92
2023/05/02 10:11:27;;;;;;;7.53;5.15;;;15.70;78.60;;;;;;5037595;28;20284;-92
2023/05/02 10:13:56;;;;;;;7.28;6.05;;;15.40;78.30;;;;;;5018391;28;20270;-92
2023/05/02 10:16:29;;;;;;;6.30;5.70;;;15.20;80.80;;;;;;5040287;28;20210;-92
2023/05/02 10:19:05;;;;;;;7.38;5.85;;;15.00;82.90;;;;;;5002389;28;20345;-92
2023/05/02 10:21:33;;;;;;;5.57;5.07;;;14.90;86.70;;;;;;5026363;28;20206;-91
2023/05/02 10:24:02;;;;;;;7.25;5.70;;;14.80;88.10;;;;;;5006362;28;20218;-93
2023/05/02 10:26:29;;;;;;;6.65;5.95;;;14.70;83.30;;;;;;5034223;28;20284;-92
2023/05/02 10:28:57;;;;;;;6.55;5.95;;;14.60;84.20;;;;;;5034841;28;20250;-92
2023/05/02 10:31:25;;;;;;;7.50;6.30;;;14.60;83.80;;;;;;5021845;28;20205;-92
2023/05/02 10:33:52;;;;;;;6.57;5.97;;;14.70;83.10;;;;;;5033885;28;20210;-91
2023/05/02 10:36:21;;;;;;;6.63;6.03;;;14.70;84.00;;;;;;5021885;28;20198;-92
2023/05/02 10:38:49;;;;;;;6.80;6.05;;;14.70;85.50;;;;;;5032288;28;20198;-92
2023/05/02 10:41:20;;;;;;;6.75;6.05;;;14.60;87.60;;;;;;5035884;28;20202;-93
2023/05/02 10:43:48;;;;;;;6.90;5.68;;;14.60;84.70;;;;;;5029915;28;20199;-92
2023/05/02 10:46:33;;;;;;;6.70;6.03;;;14.60;83.10;;;;;;5031523;28;20249;-92
2023/05/02 10:49:02;;;;;;;6.13;5.53;;;14.50;84.40;;;;;;5032312;28;20202;-92
2023/05/02 10:51:30;;;;;;;6.90;5.90;;;14.50;86.20;;;;;;5033739;28;20198;-92
2023/05/02 10:54:19;;;;;;;6.00;5.45;;;14.70;83.50;;;;;;5019278;28;20995;-92
2023/05/02 10:57:03;;;;;;;6.57;5.50;;;14.70;82.00;;;;;;5032964;28;20214;-93
2023/05/02 10:59:32;;;;;;;6.20;5.60;;;14.80;82.00;;;;;;5030457;28;20202;-91
2023/05/02 11:02:01;;;;;;;6.47;5.70;;;14.70;83.20;;;;;;5036419;28;20293;-92
2023/05/02 11:05:02;;;;;;;8.43;5.43;;;14.70;88.40;;;;;;5031877;28;20205;-92
2023/05/02 11:07:31;;;;;;;6.55;5.95;;;14.70;86.20;;;;;;5019297;28;20298;-91
2023/05/02 11:10:27;;;;;;;8.07;5.93;;;14.70;82.00;;;;;;5027969;28;20199;-93
2023/05/02 11:12:55;;;;;;;7.38;5.30;;;14.60;82.50;;;;;;5030528;28;20190;-93
2023/05/02 11:15:56;;;;;;;5.05;4.07;;;14.50;76.90;;;;;;5017517;28;20934;-92
2023/05/02 11:18:25;;;;;;;6.93;4.45;;;14.10;75.50;;;;;;5034237;28;20218;-92
2023/05/02 11:21:27;;;;;;;7.68;5.38;;;13.80;72.10;;;;;;5029528;28;20202;-90
2023/05/02 11:24:38;;;;;;;12.05;6.35;;;13.40;82.40;;;;;;5015215;28;20285;-93
2023/05/02 11:27:44;;;;;;;9.93;6.57;;;12.80;92.20;;;;;;5010869;28;20283;-91
2023/05/02 11:30:12;;;;;;;12.70;6.95;;;12.40;94.50;;;;;;5024351;28;20297;-90
2023/05/02 11:33:28;;;;;;;10.23;7.00;;;11.90;96.20;;;;;;5011357;28;20668;-90
2023/05/02 11:35:57;;;;;;;13.15;7.72;;;11.50;96.10;;;;;;5032210;28;20217;-88
2023/05/02 11:38:26;;;;;;;11.77;7.63;;;11.00;95.90;;;;;;5029266;28;20213;-90
2023/05/02 11:40:55;;;;;;;15.85;7.65;;;10.60;97.40;;;;;;5030931;28;20270;-90
2023/05/02 11:43:24;;;;;;;12.15;7.78;;;10.40;98.70;;;;;;5033749;28;20690;-88
2023/05/02 11:45:51;;;;;;;9.60;7.80;;;10.30;99.40;;;;;;5039046;28;20560;-89
2023/05/02 11:48:19;;;;;;;13.02;8.00;;;10.30;99.90;;;;;;5042292;28;20222;-88
2023/05/02 11:50:47;;;;;;;13.75;8.85;;;10.50;99.90;;;;;;5050895;28;20195;-88
2023/05/02 11:53:17;;;;;;;12.98;8.40;;;10.60;99.90;;;;;;5035538;28;20205;-89
2023/05/02 11:55:46;;;;;;;11.80;7.72;;;10.70;99.90;;;;;;5013267;28;20233;-88
2023/05/02 11:58:14;;;;;;;7.82;6.97;;;10.90;99.90;;;;;;5012587;28;20206;-88
2023/05/02 12:00:44;;;;;;;10.50;8.20;;;11.10;99.90;;;;;;5029520;28;20206;-88
2023/05/02 12:03:29;;;;;;;8.82;7.00;;;11.20;99.40;;;;;;5030556;28;20203;-87
2023/05/02 12:05:57;;;;;;;11.00;6.88;;;11.20;98.80;;;;;;5020597;28;20207;-88
2023/05/02 12:08:27;;;;;;;8.40;6.95;;;11.20;99.30;;;;;;5030874;28;20651;-88
2023/05/02 12:10:56;;;;;;;48.10;39.35;;;11.30;99.90;;;;;;5041733;28;20194;-88
2023/05/02 12:13:26;;;;;;;22.35;17.02;;;11.40;99.90;;;;;;5034352;28;20204;-87
2023/05/02 12:15:54;;;;;;;18.42;13.88;;;11.40;99.90;;;;;;5028930;28;20612;-89
2023/05/02 12:18:23;;;;;;;21.33;16.80;;;11.60;99.90;;;;;;5015431;28;20238;-87
2023/05/02 12:20:52;;;;;;;55.28;42.35;;;11.60;99.90;;;;;;5030434;28;20215;-87
2023/05/02 12:23:20;;;;;;;19.70;15.02;;;11.80;99.90;;;;;;5027473;28;20262;-88
2023/05/02 12:25:49;;;;;;;9.30;7.95;;;11.90;99.90;;;;;;5031663;28;20190;-87
2023/05/02 12:28:19;;;;;;;9.57;7.43;;;11.90;99.90;;;;;;5032220;28;20293;-88
2023/05/02 12:30:48;;;;;;;18.02;14.50;;;12.00;99.90;;;;;;5024016;28;20604;-88
2023/05/02 12:33:16;;;;;;;9.40;7.95;;;12.20;99.90;;;;;;5013385;28;20198;-87
2023/05/02 12:35:44;;;;;;;7.78;6.43;;;12.40;99.90;;;;;;5033100;28;20221;-88
2023/05/02 12:38:13;;;;;;;6.60;6.00;;;12.60;98.70;;;;;;5032557;28;20684;-90
2023/05/02 12:41:08;;;;;;;8.02;6.80;;;12.90;99.00;;;;;;5034109;28;20201;-89
2023/05/02 12:43:50;;;;;;;14.95;13.38;;;13.40;95.20;;;;;;5031598;28;20194;-91
2023/05/02 12:46:17;;;;;;;19.75;16.45;;;14.00;95.60;;;;;;5008813;28;20570;-90
2023/05/02 12:48:44;;;;;;;7.95;6.50;;;14.40;94.10;;;;;;5011551;28;20260;-91
2023/05/02 12:51:22;;;;;;;8.98;5.97;;;14.70;93.90;;;;;;5014381;28;20638;-90
2023/05/02 12:53:49;;;;;;;5.85;5.32;;;14.50;93.30;;;;;;5026823;28;20209;-90
2023/05/02 12:56:16;;;;;;;7.35;6.03;;;14.70;93.20;;;;;;5036148;28;20636;-91
2023/05/02 12:58:49;;;;;;;6.28;5.00;;;14.90;93.00;;;;;;5031656;28;20222;-91
2023/05/02 13:01:17;;;;;;;6.00;5.03;;;15.10;91.50;;;;;;5035345;28;20233;-92
2023/05/02 13:03:44;;;;;;;72.20;64.25;;;14.90;91.20;;;;;;5016637;28;20918;-92
2023/05/02 13:06:11;;;;;;;16.60;14.82;;;15.00;92.00;;;;;;5031105;28;20213;-91
2023/05/02 13:08:38;;;;;;;45.50;40.42;;;15.10;90.40;;;;;;5028868;28;20222;-90
2023/05/02 13:11:05;;;;;;;8.13;6.07;;;15.20;91.50;;;;;;5028289;28;20202;-91
2023/05/02 13:13:34;;;;;;;8.43;7.63;;;15.50;91.10;;;;;;5014768;28;20205;-91
2023/05/02 13:16:02;;;;;;;12.77;11.43;;;15.70;91.60;;;;;;5025994;28;20309;-91
2023/05/02 13:18:29;;;;;;;6.45;5.85;;;15.70;89.60;;;;;;5014443;28;20222;-92
2023/05/02 13:20:56;;;;;;;4.57;4.18;;;15.70;81.40;;;;;;5027700;28;20304;-92
2023/05/02 13:23:23;;;;;;;4.18;3.88;;;15.90;88.20;;;;;;5032181;28;20217;-92
2023/05/02 13:25:50;;;;;;;5.68;4.93;;;15.70;80.10;;;;;;5013648;28;20195;-94
2023/05/02 13:28:17;;;;;;;5.45;4.40;;;15.60;82.40;;;;;;5030903;28;20215;-94
2023/05/02 13:30:44;;;;;;;5.18;4.70;;;15.50;78.50;;;;;;5032853;28;20253;-94
2023/05/02 13:33:13;;;;;;;7.45;5.90;;;15.40;85.70;;;;;;5017243;28;20256;-95
2023/05/02 13:35:40;;;;;;;5.20;4.28;;;15.40;80.10;;;;;;5040952;28;20578;-94
2023/05/02 13:38:07;;;;;;;4.22;3.92;;;15.20;79.20;;;;;;5018434;28;20209;-95
2023/05/02 13:40:35;;;;;;;4.22;3.83;;;15.20;84.30;;;;;;5015786;28;20567;-94
2023/05/02 13:43:02;;;;;;;3.95;3.40;;;15.40;82.40;;;;;;5042402;28;20194;-93
2023/05/02 13:45:29;;;;;;;3.83;3.53;;;15.50;82.70;;;;;;5035541;28;20238;-94
2023/05/02 13:47:55;;;;;;;3.80;3.42;;;15.30;77.50;;;;;;5039763;28;20198;-93
2023/05/02 13:50:24;;;;;;;4.47;4.05;;;15.40;80.40;;;;;;5019543;28;20207;-94
2023/05/02 13:52:51;;;;;;;5.60;3.67;;;15.50;78.30;;;;;;5027213;28;20674;-95
2023/05/02 13:55:18;;;;;;;4.00;3.58;;;15.50;77.70;;;;;;5042741;28;20210;-95
2023/05/02 13:57:45;;;;;;;4.03;3.60;;;15.40;84.30;;;;;;5035354;28;20195;-91
2023/05/02 14:00:13;;;;;;;5.65;3.88;;;15.40;82.30;;;;;;5018068;28;20213;-95
2023/05/02 14:02:40;;;;;;;4.03;3.67;;;15.30;87.10;;;;;;5049468;28;20191;-94
2023/05/02 14:05:08;;;;;;;7.32;4.40;;;15.10;85.00;;;;;;5037536;28;21165;-93